Terminal Aerodrome Forecast
Issued by NWS Charleston, WV

Current Version | Previous Version | Graphics & Text | Print | Product List | Glossary On
Versions: 1 2 3 4 5 6 7 8 9 10 11 12 13 14 15 16 17 18 19 20 21 22 23 24 25 26
000
FTUS41 KRLX 260900 AAB
TAFHTS
TAF AMD
KHTS 260901Z 2609/2706 00000KT 6SM BR SCT120
      TEMPO 2609/2612 3SM BR
     FM261400 21007KT P6SM SCT050
     FM262300 22004KT P6SM SCT120
     FM270300 19003KT P6SM BKN090
     FM270500 17003KT P6SM VCTS BKN050CB=

USA.gov is the U.S. government's official web portal to all federal, state and local government web resources and services.